createdAt,value
2019-03-30T17:21:04.947Z,11.60
2019-03-30T17:24:08.868Z,11.30
2019-03-30T17:27:12.684Z,11.30
2019-03-30T17:30:16.921Z,11.30
2019-03-30T17:33:20.836Z,11.20
2019-03-30T17:36:24.715Z,11.10
2019-03-30T17:39:28.600Z,11.10
2019-03-30T17:42:32.486Z,11.10
2019-03-30T17:45:36.340Z,11.00
2019-03-30T17:48:40.196Z,11.10
2019-03-30T17:51:44.106Z,11.20
2019-03-30T17:54:47.968Z,11.20
2019-03-30T17:57:51.870Z,11.30
2019-03-30T18:00:55.750Z,11.20
2019-03-30T18:03:59.608Z,11.10
2019-03-30T18:07:03.538Z,11.00
2019-03-30T18:10:07.879Z,10.90
2019-03-30T18:13:11.708Z,11.10
2019-03-30T18:16:16.651Z,11.20
2019-03-30T18:19:20.471Z,11.30
2019-03-30T18:22:25.138Z,11.30
2019-03-30T18:25:29.071Z,11.40
2019-03-30T18:28:33.130Z,11.50
2019-03-30T18:31:36.980Z,11.50
2019-03-30T18:34:41.845Z,11.50
2019-03-30T18:37:45.876Z,11.60
2019-03-30T18:40:49.893Z,11.40
2019-03-30T18:43:53.805Z,11.30
2019-03-30T18:46:57.709Z,10.90
2019-03-30T18:50:01.567Z,10.60
2019-03-30T18:53:05.421Z,10.20
2019-03-30T18:56:09.535Z,9.80
2019-03-30T18:59:13.437Z,9.50
2019-03-30T19:02:19.182Z,9.30
2019-03-30T19:05:22.897Z,9.20
2019-03-30T19:08:26.774Z,9.00
2019-03-30T19:11:30.584Z,8.90
2019-03-30T19:14:35.955Z,8.80
2019-03-30T19:17:39.848Z,8.60
2019-03-30T19:20:43.689Z,8.50
2019-03-30T19:23:47.585Z,8.30
2019-03-30T19:26:51.445Z,8.30
2019-03-30T19:29:55.348Z,8.30
2019-03-30T19:33:01.073Z,8.30
2019-03-30T19:36:04.993Z,8.20
2019-03-30T19:39:09.575Z,8.20
2019-03-30T19:42:15.668Z,8.20
2019-03-30T19:45:19.173Z,8.20
2019-03-30T19:48:22.990Z,8.00
2019-03-30T19:51:26.990Z,8.00
2019-03-30T19:54:30.828Z,7.90
2019-03-30T19:57:36.200Z,7.80
2019-03-30T20:00:40.336Z,7.70
2019-03-30T20:03:44.368Z,7.60
2019-03-30T20:06:48.291Z,7.60
2019-03-30T20:09:52.159Z,7.50
2019-03-30T20:12:56.361Z,7.40
2019-03-30T20:16:00.280Z,7.30
2019-03-30T20:19:11.944Z,7.20
2019-03-30T20:22:09.681Z,7.00
2019-03-30T20:25:14.091Z,6.90
2019-03-30T20:28:17.975Z,6.70
2019-03-30T20:31:21.866Z,6.50
2019-03-30T20:34:25.700Z,6.40
2019-03-30T20:37:29.578Z,6.30
2019-03-30T20:40:33.472Z,6.20
2019-03-30T20:43:37.598Z,6.10
2019-03-30T20:46:43.665Z,6.10
2019-03-30T20:49:46.977Z,6.10
2019-03-30T20:52:50.866Z,6.00
2019-03-30T20:55:54.783Z,6.00
2019-03-30T20:58:58.669Z,5.90
2019-03-30T21:02:02.657Z,5.80
2019-03-30T21:05:07.225Z,5.70
2019-03-30T21:08:11.125Z,5.70
2019-03-30T21:11:14.985Z,5.70
2019-03-30T21:14:18.910Z,5.70
2019-03-30T21:17:22.744Z,5.70
2019-03-30T21:20:26.660Z,5.70
2019-03-30T21:23:30.527Z,5.70
2019-03-30T21:26:34.444Z,5.70
2019-03-30T21:29:38.337Z,5.70
2019-03-30T21:32:42.678Z,5.70
2019-03-30T21:35:46.553Z,5.60
2019-03-30T21:38:50.427Z,5.60
2019-03-30T21:41:54.285Z,5.50
2019-03-30T21:44:58.124Z,5.40
2019-03-30T21:48:02.008Z,5.30
2019-03-30T21:51:05.859Z,5.20
2019-03-30T21:54:09.710Z,5.10
2019-03-30T21:57:13.610Z,5.00
2019-03-30T22:00:34.835Z,4.90
2019-03-30T22:03:38.778Z,4.90
2019-03-30T22:06:43.250Z,4.80
2019-03-30T22:09:47.132Z,4.70
2019-03-30T22:12:51.009Z,4.60
2019-03-30T22:15:54.845Z,4.60
2019-03-30T22:18:58.782Z,4.60
2019-03-30T22:22:02.653Z,4.60
2019-03-30T22:25:07.154Z,4.70
2019-03-30T22:28:11.050Z,4.60
2019-03-30T22:31:14.948Z,4.70
2019-03-30T22:34:18.798Z,4.70
2019-03-30T22:37:22.645Z,4.60
2019-03-30T22:40:26.566Z,4.60
2019-03-30T22:43:30.517Z,4.60
2019-03-30T22:46:34.388Z,4.50
2019-03-30T22:49:38.325Z,4.30
2019-03-30T22:52:42.170Z,4.20
2019-03-30T22:55:46.049Z,4.10
2019-03-30T22:58:49.970Z,4.00
2019-03-30T23:01:53.851Z,3.90
2019-03-30T23:04:57.684Z,3.80
2019-03-30T23:08:01.808Z,3.80
2019-03-30T23:11:05.744Z,3.80
2019-03-30T23:14:09.575Z,3.80
2019-03-30T23:17:13.455Z,3.70
2019-03-30T23:20:17.339Z,3.80
2019-03-30T23:23:21.248Z,3.80
2019-03-30T23:26:25.085Z,3.80
2019-03-30T23:29:28.949Z,3.90
2019-03-30T23:32:32.825Z,3.90
2019-03-30T23:35:36.650Z,3.90
2019-03-30T23:38:40.532Z,4.00
2019-03-30T23:41:44.348Z,3.90
2019-03-30T23:44:48.230Z,3.90
2019-03-30T23:47:52.136Z,3.90
2019-03-30T23:50:55.952Z,3.90
2019-03-30T23:53:59.800Z,3.90
2019-03-30T23:57:03.701Z,3.90
